Time;durP1;ratioP1;P1;durP2;ratioP2;P2;SDS_P1;SDS_P2;PMS_P1;PMS_P2;Temp;Humidity;BMP_temperature;BMP_pressure;BME280_temperature;BME280_humidity;BME280_pressure;Samples;Min_cycle;Max_cycle;Signal;HPM_P1;HPM_P2
2024/04/23 00:02:22;;;;;;;3.65;2.88;;;;;;;0.64;100.00;102295.19;5128630;27;20021;-80
2024/04/23 00:04:48;;;;;;;6.03;2.67;;;;;;;0.65;100.00;102298.66;5069048;28;20489;-79
2024/04/23 00:07:14;;;;;;;4.97;3.05;;;;;;;0.67;100.00;102296.66;5130100;27;20064;-79
2024/04/23 00:09:39;;;;;;;4.95;2.65;;;;;;;0.68;100.00;102291.25;5143471;27;20740;-79
2024/04/23 00:12:05;;;;;;;5.03;3.17;;;;;;;0.69;100.00;102282.34;5109865;27;20009;-79
2024/04/23 00:14:31;;;;;;;3.25;2.33;;;;;;;0.72;100.00;102281.19;5141844;27;20450;-78
2024/04/23 00:17:01;;;;;;;4.28;2.92;;;;;;;0.73;100.00;102278.38;5111444;27;20021;-81
2024/04/23 00:19:27;;;;;;;4.72;2.72;;;;;;;0.74;100.00;102274.75;5103107;27;20088;-80
2024/04/23 00:21:54;;;;;;;5.57;2.90;;;;;;;0.74;100.00;102263.38;5128672;27;20499;-80
2024/04/23 00:24:21;;;;;;;5.68;2.83;;;;;;;0.75;100.00;102265.88;5131849;27;20016;-80
2024/04/23 00:26:59;;;;;;;4.65;2.80;;;;;;;0.76;100.00;102262.22;5109630;27;20009;-79
2024/04/23 00:29:26;;;;;;;5.88;2.50;;;;;;;0.77;100.00;102261.25;5125914;27;20012;-80
2024/04/23 00:31:52;;;;;;;6.05;2.90;;;;;;;0.79;100.00;102256.59;5133394;27;20092;-80
2024/04/23 00:34:17;;;;;;;4.05;2.70;;;;;;;0.78;100.00;102257.59;5138882;27;20012;-80
2024/04/23 00:36:54;;;;;;;4.95;2.90;;;;;;;0.78;100.00;102254.16;5118107;27;20090;-80
2024/04/23 00:39:20;;;;;;;4.90;2.83;;;;;;;0.79;100.00;102251.34;5121050;27;20069;-78
2024/04/23 00:41:46;;;;;;;3.80;2.50;;;;;;;0.77;100.00;102250.69;5138655;27;20013;-80
2024/04/23 00:44:12;;;;;;;4.18;2.60;;;;;;;0.73;100.00;102251.19;5128912;27;20669;-78
2024/04/23 00:46:39;;;;;;;5.75;3.15;;;;;;;0.70;100.00;102247.06;5171813;27;20020;-79
2024/04/23 00:49:09;;;;;;;4.18;2.72;;;;;;;0.68;100.00;102246.44;5108927;27;20093;-80
2024/04/23 00:51:36;;;;;;;6.53;3.20;;;;;;;0.65;100.00;102238.84;5133230;27;20720;-78
2024/04/23 00:54:02;;;;;;;5.95;2.90;;;;;;;0.66;100.00;102237.84;5112124;27;20020;-78
2024/04/23 00:56:29;;;;;;;5.38;3.53;;;;;;;0.66;100.00;102240.47;5110148;27;20616;-80
2024/04/23 00:58:56;;;;;;;4.90;2.85;;;;;;;0.65;100.00;102236.19;5109483;27;20012;-78
2024/04/23 01:01:22;;;;;;;5.82;3.33;;;;;;;0.66;100.00;102245.75;5130965;27;20009;-80
2024/04/23 01:03:48;;;;;;;6.22;3.22;;;;;;;0.67;100.00;102242.13;5098554;27;20023;-78
2024/04/23 01:06:14;;;;;;;5.03;3.33;;;;;;;0.70;100.00;102236.53;5127989;27;20021;-78
2024/04/23 01:08:39;;;;;;;5.55;3.20;;;;;;;0.70;100.00;102247.06;5126702;27;20009;-78
2024/04/23 01:11:05;;;;;;;5.18;3.55;;;;;;;0.71;100.00;102240.81;5134002;27;20918;-77
2024/04/23 01:13:31;;;;;;;4.20;2.72;;;;;;;0.73;100.00;102236.19;5135696;27;20796;-77
2024/04/23 01:15:57;;;;;;;6.50;3.42;;;;;;;0.74;100.00;102243.09;5125369;27;20009;-78
2024/04/23 01:18:24;;;;;;;;;;;;;;;0.75;100.00;102239.50;5143981;27;20017;-81
2024/04/23 01:20:55;;;;;;;6.28;3.30;;;;;;;0.75;100.00;102226.31;5112576;27;19928;-79
2024/04/23 01:23:35;;;;;;;7.32;3.20;;;;;;;0.73;100.00;102222.16;5115424;27;20058;-79
2024/04/23 01:26:08;;;;;;;5.75;2.83;;;;;;;0.71;100.00;102224.97;5116116;27;20009;-82
2024/04/23 01:28:37;;;;;;;6.63;3.50;;;;;;;0.69;100.00;102226.97;5113708;27;20371;-81
2024/04/23 01:31:05;;;;;;;4.82;2.80;;;;;;;0.66;100.00;102229.94;5172590;27;20021;-82
2024/04/23 01:33:34;;;;;;;5.90;3.33;;;;;;;0.65;100.00;102228.28;5147223;27;20017;-82
2024/04/23 01:36:02;;;;;;;7.25;2.65;;;;;;;0.64;100.00;102212.66;5095981;27;20013;-83
2024/04/23 01:38:28;;;;;;;4.57;2.60;;;;;;;0.62;100.00;102215.47;5141377;27;20093;-82
2024/04/23 01:40:54;;;;;;;4.43;2.85;;;;;;;0.61;100.00;102203.28;5140563;27;20091;-81
2024/04/23 01:43:20;;;;;;;5.93;3.55;;;;;;;0.59;100.00;102205.22;5110166;27;20029;-81
2024/04/23 01:45:46;;;;;;;7.10;3.25;;;;;;;0.57;100.00;102203.75;5145167;27;20033;-80
2024/04/23 01:48:11;;;;;;;6.25;3.45;;;;;;;0.58;100.00;102194.84;5118890;27;20047;-79
2024/04/23 01:50:37;;;;;;;6.40;3.65;;;;;;;0.57;100.00;102199.31;5134771;27;20033;-80
2024/04/23 01:53:03;;;;;;;7.32;4.18;;;;;;;0.58;100.00;102187.78;5086024;27;20079;-79
2024/04/23 01:55:29;;;;;;;5.82;3.60;;;;;;;0.61;100.00;102192.72;5114998;27;20088;-80
2024/04/23 01:57:55;;;;;;;5.95;3.40;;;;;;;0.60;100.00;102192.88;5113951;27;20020;-81
2024/04/23 02:00:23;;;;;;;6.25;3.40;;;;;;;0.58;100.00;102194.84;5160789;27;20005;-81
2024/04/23 02:02:50;;;;;;;6.78;4.13;;;;;;;0.53;100.00;102192.72;5137862;27;20009;-80
2024/04/23 02:05:17;;;;;;;8.18;3.85;;;;;;;0.53;100.00;102198.81;5109801;27;20032;-80
2024/04/23 02:07:44;;;;;;;5.75;4.03;;;;;;;0.52;100.00;102185.81;5173058;27;20614;-79
2024/04/23 02:10:10;;;;;;;5.90;3.97;;;;;;;0.50;100.00;102193.06;5104024;27;20029;-79
2024/04/23 02:12:38;;;;;;;7.85;4.10;;;;;;;0.47;100.00;102188.09;5141587;27;20016;-81
2024/04/23 02:15:05;;;;;;;8.25;4.57;;;;;;;0.44;100.00;102199.00;5136657;27;20017;-78
2024/04/23 02:17:31;;;;;;;7.88;3.80;;;;;;;0.41;100.00;102188.81;5138947;27;20024;-81
2024/04/23 02:19:57;;;;;;;8.32;5.03;;;;;;;0.36;100.00;102201.66;5142501;27;20013;-81
2024/04/23 02:22:22;;;;;;;8.45;4.03;;;;;;;0.32;100.00;102195.06;5141839;27;20053;-78
2024/04/23 02:24:48;;;;;;;8.90;4.70;;;;;;;0.29;100.00;102201.50;5123609;27;20012;-78
2024/04/23 02:27:15;;;;;;;6.90;4.15;;;;;;;0.24;100.00;102201.16;5140287;27;20012;-80
2024/04/23 02:29:41;;;;;;;7.15;3.85;;;;;;;0.20;100.00;102195.41;5109137;27;20009;-80
2024/04/23 02:32:06;;;;;;;8.05;4.82;;;;;;;0.17;100.00;102190.47;5104042;27;20020;-80
2024/04/23 02:34:32;;;;;;;7.07;4.20;;;;;;;0.16;100.00;102185.38;5125382;27;20480;-79
2024/04/23 02:36:58;;;;;;;10.13;4.00;;;;;;;0.18;100.00;102178.09;5134912;27;20004;-77
2024/04/23 02:39:23;;;;;;;6.75;4.13;;;;;;;0.15;100.00;102187.19;5108237;27;20005;-80
2024/04/23 02:41:51;;;;;;;7.38;4.35;;;;;;;0.14;100.00;102182.91;5143718;27;20036;-81
2024/04/23 02:44:16;;;;;;;8.27;4.47;;;;;;;0.18;100.00;102188.66;5138644;27;20023;-82
2024/04/23 02:46:42;;;;;;;7.20;4.20;;;;;;;0.20;100.00;102189.28;5119964;27;20020;-80
2024/04/23 02:49:08;;;;;;;6.90;3.95;;;;;;;0.21;100.00;102183.88;5140912;27;20581;-80
2024/04/23 02:51:33;;;;;;;8.00;4.53;;;;;;;0.21;100.00;102183.88;5109156;27;20013;-80
2024/04/23 02:53:59;;;;;;;6.03;3.75;;;;;;;0.21;100.00;102183.06;5142838;27;20091;-81
2024/04/23 02:56:25;;;;;;;7.70;4.00;;;;;;;0.21;100.00;102177.78;5110930;27;20091;-80
2024/04/23 02:58:52;;;;;;;6.15;3.83;;;;;;;0.18;100.00;102178.94;5151844;27;20032;-80
2024/04/23 03:01:17;;;;;;;10.13;4.95;;;;;;;0.14;100.00;102177.63;5120942;27;20049;-79
2024/04/23 03:03:43;;;;;;;9.18;4.60;;;;;;;0.11;100.00;102167.41;5154466;27;20023;-80
2024/04/23 03:06:09;;;;;;;7.35;4.22;;;;;;;0.08;100.00;102167.75;5109298;27;20117;-80
2024/04/23 03:08:34;;;;;;;7.65;4.35;;;;;;;0.05;100.00;102165.44;5145500;27;20013;-80
2024/04/23 03:11:00;;;;;;;7.32;4.20;;;;;;;0.05;100.00;102162.78;5111873;27;20009;-79
2024/04/23 03:13:25;;;;;;;6.72;4.18;;;;;;;0.04;100.00;102161.16;5108113;27;20009;-79
2024/04/23 03:15:51;;;;;;;7.82;4.10;;;;;;;0.01;100.00;102161.50;5138127;27;20023;-80
2024/04/23 03:18:17;;;;;;;6.13;4.13;;;;;;;-0.02;100.00;102151.28;5144300;27;20050;-81
2024/04/23 03:20:43;;;;;;;7.22;4.72;;;;;;;-0.03;100.00;102157.53;5109788;27;20028;-79
2024/04/23 03:23:08;;;;;;;6.85;4.20;;;;;;;-0.04;100.00;102154.09;5131851;27;20034;-80
2024/04/23 03:25:34;;;;;;;8.18;4.40;;;;;;;-0.07;100.00;102150.94;5132888;27;20013;-79
2024/04/23 03:28:00;;;;;;;7.50;4.35;;;;;;;-0.09;100.00;102160.81;5141898;27;20531;-79
2024/04/23 03:30:26;;;;;;;7.70;3.80;;;;;;;-0.09;100.00;102145.03;5140878;27;20025;-80
2024/04/23 03:32:51;;;;;;;8.85;4.13;;;;;;;-0.03;100.00;102147.00;5103161;27;20088;-79
2024/04/23 03:35:17;;;;;;;9.15;4.25;;;;;;;-0.01;100.00;102142.38;5135334;27;20009;-80
2024/04/23 03:37:42;;;;;;;7.95;4.18;;;;;;;0.01;100.00;102140.44;5138330;27;20093;-82
2024/04/23 03:40:08;;;;;;;7.28;4.30;;;;;;;0.03;100.00;102137.63;5116730;27;20007;-80
2024/04/23 03:42:34;;;;;;;6.43;4.43;;;;;;;0.03;100.00;102146.34;5134486;27;20772;-80
2024/04/23 03:45:00;;;;;;;6.00;3.92;;;;;;;0.01;100.00;102140.44;5142253;27;20016;-79
2024/04/23 03:47:25;;;;;;;5.85;4.30;;;;;;;-0.02;100.00;102136.28;5110957;27;20005;-80
2024/04/23 03:49:51;;;;;;;6.25;4.00;;;;;;;-0.05;100.00;102133.19;5134997;27;20088;-80
2024/04/23 03:52:18;;;;;;;7.13;4.55;;;;;;;-0.06;100.00;102128.91;5128170;27;20020;-80
2024/04/23 03:54:44;;;;;;;8.25;4.55;;;;;;;-0.07;100.00;102137.78;5111670;27;20013;-81
2024/04/23 03:57:10;;;;;;;7.03;4.45;;;;;;;-0.09;100.00;102129.22;5136095;27;20031;-82
2024/04/23 03:59:36;;;;;;;7.15;4.55;;;;;;;-0.10;100.00;102135.50;5134729;27;20791;-80
2024/04/23 04:07:30;;;;;;;7.95;3.60;;;;;;;-0.09;100.00;102123.97;5114077;27;21056;-81
2024/04/23 04:09:56;;;;;;;7.13;3.63;;;;;;;-0.10;100.00;102123.13;5133503;27;20020;-81
2024/04/23 04:12:21;;;;;;;6.32;3.72;;;;;;;-0.09;100.00;102119.50;5133311;27;20023;-80
2024/04/23 04:17:42;;;;;;;4.80;3.17;;;;;;;-0.12;100.00;102122.50;5737308;22;20034;-81
2024/04/23 04:20:09;;;;;;;6.80;4.28;;;;;;;-0.15;100.00;102132.50;5187651;27;20476;-81
2024/04/23 04:22:35;;;;;;;8.52;3.83;;;;;;;-0.18;100.00;102133.69;5215371;27;20031;-81
2024/04/23 04:25:00;;;;;;;7.57;3.72;;;;;;;-0.24;100.00;102130.88;5158352;27;20014;-81
2024/04/23 04:27:29;;;;;;;7.57;3.83;;;;;;;-0.26;100.00;102130.22;5188331;27;20497;-81
2024/04/23 04:29:58;;;;;;;7.05;3.80;;;;;;;-0.26;100.00;102132.88;5220033;27;20025;-82
2024/04/23 04:32:24;;;;;;;6.45;3.80;;;;;;;-0.24;100.00;102133.50;5189181;27;20012;-81
2024/04/23 04:34:50;;;;;;;6.35;3.67;;;;;;;-0.25;100.00;102124.78;5184623;27;20434;-81
2024/04/23 04:37:15;;;;;;;6.55;3.85;;;;;;;-0.22;100.00;102126.25;5172067;27;20022;-81
2024/04/23 04:39:41;;;;;;;5.80;3.80;;;;;;;-0.21;100.00;102120.00;5220721;27;20021;-80
2024/04/23 04:42:07;;;;;;;6.72;4.00;;;;;;;-0.16;100.00;102133.50;5190120;27;20385;-80
2024/04/23 04:44:33;;;;;;;5.65;3.60;;;;;;;-0.14;100.00;102127.06;5220623;27;20003;-80
2024/04/23 04:46:59;;;;;;;9.50;4.00;;;;;;;-0.11;100.00;102120.69;5191203;27;20018;-81
2024/04/23 04:49:24;;;;;;;5.88;3.80;;;;;;;-0.03;100.00;102125.94;5176480;27;20011;-81
2024/04/23 04:51:50;;;;;;;5.28;3.75;;;;;;;0.01;100.00;102129.91;5192519;27;20870;-81
2024/04/23 04:54:16;;;;;;;7.85;4.70;;;;;;;0.11;100.00;102127.88;5221184;27;20011;-81
2024/04/23 04:56:42;;;;;;;6.28;3.97;;;;;;;0.13;100.00;102120.63;5219657;26;20016;-81
2024/04/23 04:59:08;;;;;;;6.50;3.80;;;;;;;0.23;100.00;102118.66;5198959;27;20011;-81
2024/04/23 05:01:35;;;;;;;7.57;4.20;;;;;;;0.32;100.00;102121.28;5199168;27;20003;-81
2024/04/23 05:04:03;;;;;;;5.88;3.80;;;;;;;0.41;100.00;102117.66;5195864;27;20000;-81
2024/04/23 05:06:31;;;;;;;8.98;4.00;;;;;;;0.42;100.00;102112.19;5205805;27;20010;-81
2024/04/23 05:08:57;;;;;;;7.70;4.43;;;;;;;0.48;100.00;102122.06;5201817;27;20022;-81
2024/04/23 05:11:22;;;;;;;7.30;3.90;;;;;;;0.54;100.00;102110.00;5205594;27;20007;-81
2024/04/23 05:13:48;;;;;;;7.90;4.05;;;;;;;0.60;100.00;102119.88;5209922;27;20026;-81
2024/04/23 05:16:14;;;;;;;7.47;4.13;;;;;;;0.65;100.00;102122.81;5169072;27;20019;-81
2024/04/23 05:18:40;;;;;;;7.07;3.92;;;;;;;0.66;100.00;102103.38;5226894;27;20014;-81
2024/04/23 05:21:06;;;;;;;;;;;;;;;0.77;100.00;102116.19;5195042;27;20011;-81
2024/04/23 05:23:32;;;;;;;5.35;3.40;;;;;;;0.80;100.00;102121.09;5198423;27;19942;-81
2024/04/23 05:25:58;;;;;;;5.35;3.50;;;;;;;0.84;100.00;102115.50;5201447;27;20077;-81
2024/04/23 05:28:23;;;;;;;5.03;3.22;;;;;;;0.91;100.00;102111.19;5153783;27;20007;-81
2024/04/23 05:33:37;;;;;;;5.20;3.15;;;;;;;0.97;100.00;102103.41;5213314;27;20011;-81
2024/04/23 05:36:03;;;;;;;5.93;3.50;;;;;;;1.03;100.00;102115.09;5181393;27;20011;-81
2024/04/23 05:38:29;;;;;;;6.20;3.45;;;;;;;1.08;100.00;102107.47;5206793;27;20011;-81
2024/04/23 05:40:55;;;;;;;5.55;3.80;;;;;;;1.12;100.00;102110.59;5208759;27;20031;-81
2024/04/23 05:43:21;;;;;;;6.90;3.75;;;;;;;1.16;100.00;102119.81;5183466;27;20055;-81
2024/04/23 05:45:46;;;;;;;5.40;3.53;;;;;;;1.24;100.00;102128.50;5156430;27;20086;-81
2024/04/23 05:48:50;;;;;;;4.95;3.25;;;;;;;1.34;100.00;102112.41;5156319;27;20011;-81
2024/04/23 05:52:13;;;;;;;6.93;3.47;;;;;;;1.48;100.00;102118.75;5214333;27;20346;-81
2024/04/23 05:55:36;;;;;;;6.10;3.50;;;;;;;1.60;100.00;102117.34;5207024;27;20007;-81
2024/04/23 05:58:04;;;;;;;6.68;4.05;;;;;;;1.74;100.00;102111.31;5203466;27;20510;-81
2024/04/23 06:00:30;;;;;;;6.47;3.65;;;;;;;1.90;100.00;102108.53;5182496;27;20086;-81
2024/04/23 06:02:56;;;;;;;8.00;4.20;;;;;;;2.07;100.00;102111.03;5159899;27;20034;-81
2024/04/23 06:05:26;;;;;;;7.75;3.90;;;;;;;2.23;100.00;102108.22;5184260;27;20050;-81
2024/04/23 06:07:56;;;;;;;7.93;4.22;;;;;;;2.40;100.00;102101.75;5179629;27;20016;-81
2024/04/23 06:10:22;;;;;;;8.13;4.60;;;;;;;2.56;100.00;102102.56;5193393;27;20021;-81
2024/04/23 06:12:48;;;;;;;8.45;4.90;;;;;;;2.65;100.00;102090.91;5188952;27;20369;-81
2024/04/23 06:15:14;;;;;;;10.50;4.45;;;;;;;2.88;100.00;102101.34;5186071;27;20360;-81
2024/04/23 06:17:42;;;;;;;7.57;4.05;;;;;;;2.98;100.00;102093.94;5153670;27;20026;-81
2024/04/23 06:20:09;;;;;;;8.30;4.82;;;;;;;3.10;100.00;102094.28;5182788;27;20012;-81
2024/04/23 06:22:41;;;;;;;6.97;5.13;;;;;;;3.17;100.00;102084.56;5194058;27;20086;-81
2024/04/23 06:25:09;;;;;;;7.65;4.20;;;;;;;3.29;100.00;102075.13;5203576;27;20034;-81
2024/04/23 06:27:36;;;;;;;8.50;4.43;;;;;;;3.41;100.00;102070.97;5190890;27;20018;-81
2024/04/23 06:30:10;;;;;;;8.10;4.00;;;;;;;3.63;100.00;102078.91;5182684;27;20517;-81
2024/04/23 06:32:40;;;;;;;4.93;3.20;;;;;;;3.80;100.00;102075.81;5180124;27;20500;-81
2024/04/23 06:35:07;;;;;;;7.00;3.72;;;;;;;3.91;100.00;102078.94;5152831;27;20018;-81
2024/04/23 06:37:33;;;;;;;7.40;3.53;;;;;;;3.99;100.00;102069.00;5166341;27;20018;-81
2024/04/23 06:40:00;;;;;;;6.32;3.50;;;;;;;4.20;100.00;102075.25;5187507;27;20015;-81
2024/04/23 06:42:26;;;;;;;5.68;3.50;;;;;;;4.38;100.00;102071.06;5188110;27;20007;-81
2024/04/23 06:44:53;;;;;;;6.47;3.50;;;;;;;4.50;100.00;102071.34;5158206;27;20025;-81
2024/04/23 06:47:22;;;;;;;5.93;3.20;;;;;;;4.63;100.00;102055.50;5179728;27;20012;-81
2024/04/23 06:49:51;;;;;;;5.95;3.20;;;;;;;4.81;100.00;102057.59;5156505;27;20444;-81
2024/04/23 06:52:17;;;;;;;5.85;3.22;;;;;;;4.86;100.00;102070.25;5156816;27;20338;-81
2024/04/23 06:54:44;;;;;;;4.45;3.22;;;;;;;4.93;100.00;102057.81;5154646;27;20022;-81
2024/04/23 06:57:10;;;;;;;5.30;2.92;;;;;;;4.95;100.00;102061.13;5224246;27;20122;-81
2024/04/23 06:59:42;;;;;;;6.20;2.92;;;;;;;4.99;100.00;102051.72;5158397;27;20022;-81
2024/04/23 07:02:09;;;;;;;6.35;2.80;;;;;;;5.09;100.00;102049.50;5210054;27;20090;-81
2024/04/23 07:04:36;;;;;;;5.32;3.30;;;;;;;5.30;100.00;102050.38;5161847;27;20083;-81
2024/04/23 07:07:02;;;;;;;6.13;2.90;;;;;;;5.37;100.00;102041.38;5166917;27;20703;-81
2024/04/23 07:09:30;;;;;;;5.72;3.20;;;;;;;5.55;100.00;102053.22;5160439;27;20030;-81
2024/04/23 07:11:56;;;;;;;6.68;2.95;;;;;;;5.64;100.00;102042.22;5152475;27;20011;-81
2024/04/23 07:14:25;;;;;;;6.15;3.20;;;;;;;5.81;100.00;102050.56;5170785;27;20622;-81
2024/04/23 07:16:53;;;;;;;4.20;2.90;;;;;;;5.84;100.00;102036.06;5243280;27;20535;-81
2024/04/23 07:19:20;;;;;;;5.85;2.90;;;;;;;5.86;100.00;102052.63;5181348;27;20086;-81
2024/04/23 07:21:48;;;;;;;5.30;3.08;;;;;;;5.79;100.00;102049.97;5197736;27;20018;-81
2024/04/23 07:24:22;;;;;;;8.38;3.17;;;;;;;5.64;100.00;102044.88;5209953;27;20011;-81
2024/04/23 07:26:53;;;;;;;6.43;3.08;;;;;;;5.60;100.00;102040.97;5191448;27;20465;-81
2024/04/23 07:29:21;;;;;;;7.13;4.05;;;;;;;5.60;100.00;102040.97;5202655;27;20011;-81
2024/04/23 07:31:56;;;;;;;4.57;2.83;;;;;;;5.59;100.00;102028.72;5157858;27;20461;-81
2024/04/23 07:34:27;;;;;;;4.85;2.65;;;;;;;5.73;100.00;102038.31;5196097;27;20007;-81
2024/04/23 07:36:57;;;;;;;5.28;3.20;;;;;;;5.74;100.00;102020.50;5186463;27;20444;-81
2024/04/23 07:39:23;;;;;;;5.03;3.83;;;;;;;5.83;100.00;102024.63;5214583;27;20545;-81
2024/04/23 07:41:49;;;;;;;6.03;3.35;;;;;;;5.92;100.00;102022.59;5180990;27;20385;-81
2024/04/23 07:44:15;;;;;;;4.22;3.03;;;;;;;5.89;100.00;102021.13;5207585;27;20523;-81
2024/04/23 07:46:42;;;;;;;5.03;3.10;;;;;;;5.85;100.00;102022.56;5148975;27;20007;-81
2024/04/23 07:49:14;;;;;;;5.35;2.92;;;;;;;5.71;100.00;102023.59;5181498;27;20682;-81
2024/04/23 07:51:50;;;;;;;4.82;3.10;;;;;;;5.59;100.00;102019.91;5184868;27;20023;-81
2024/04/23 07:54:16;;;;;;;6.80;2.72;;;;;;;5.52;100.00;102019.91;5155421;27;20011;-81
2024/04/23 07:56:43;;;;;;;;;;;;;;;5.53;100.00;102032.19;5202029;27;20357;-81
2024/04/23 07:59:09;;;;;;;5.38;2.28;;;;;;;5.63;100.00;102019.31;5181786;27;19956;-81
2024/04/23 08:01:43;;;;;;;2.78;2.10;;;;;;;5.60;100.00;102014.41;5209002;27;20358;-81
2024/04/23 08:04:09;;;;;;;5.38;2.22;;;;;;;5.68;100.00;102006.19;5163654;27;20015;-81
2024/04/23 08:06:35;;;;;;;3.63;2.00;;;;;;;5.70;100.00;102001.53;5159402;27;20010;-81
2024/04/23 08:09:04;;;;;;;2.53;1.70;;;;;;;5.73;100.00;102003.75;5158338;27;20007;-81
2024/04/23 08:11:33;;;;;;;3.38;2.10;;;;;;;5.64;100.00;101994.38;5207862;27;20014;-81
2024/04/23 08:13:59;;;;;;;3.30;2.08;;;;;;;5.64;100.00;101993.56;5183813;27;20880;-81
2024/04/23 08:16:26;;;;;;;5.05;2.00;;;;;;;5.59;100.00;101996.00;5198605;27;20026;-81
2024/04/23 08:18:52;;;;;;;4.38;2.33;;;;;;;5.58;100.00;101989.88;5165008;27;20014;-81
2024/04/23 08:21:17;;;;;;;5.25;2.53;;;;;;;5.63;100.00;101982.09;5157054;27;20022;-81
2024/04/23 08:23:52;;;;;;;4.78;2.47;;;;;;;5.83;100.00;101987.41;5181320;27;20022;-81
2024/04/23 08:26:21;;;;;;;3.63;1.98;;;;;;;6.06;100.00;101994.94;5180857;27;20021;-81
2024/04/23 08:28:48;;;;;;;3.80;2.08;;;;;;;6.26;100.00;101987.69;5184393;27;20026;-81
2024/04/23 08:31:15;;;;;;;4.38;2.40;;;;;;;6.41;100.00;101983.97;5190240;27;20007;-81
2024/04/23 08:33:40;;;;;;;4.90;2.00;;;;;;;6.69;100.00;101975.63;5183449;27;20015;-81
2024/04/23 08:36:06;;;;;;;5.28;2.10;;;;;;;6.65;100.00;101971.78;5208619;27;20026;-81
2024/04/23 08:38:33;;;;;;;3.38;1.98;;;;;;;6.79;100.00;101982.13;5157671;27;20022;-81
2024/04/23 08:40:58;;;;;;;4.28;2.22;;;;;;;6.76;100.00;101969.22;5157413;27;20011;-81
2024/04/23 08:43:30;;;;;;;4.28;1.70;;;;;;;6.64;100.00;101968.31;5181981;27;20095;-81
2024/04/23 08:45:59;;;;;;;2.58;1.77;;;;;;;6.68;100.00;101968.69;5183312;27;20014;-81
2024/04/23 08:48:27;;;;;;;4.78;1.88;;;;;;;6.63;100.00;101958.66;5147930;27;20017;-81
2024/04/23 08:51:16;;;;;;;2.10;1.55;;;;;;;6.64;100.00;101957.66;5160431;27;20495;-81
2024/04/23 08:54:10;;;;;;;4.47;2.05;;;;;;;6.66;100.00;101966.22;5187394;27;20008;-81
2024/04/23 08:56:43;;;;;;;2.95;2.05;;;;;;;6.63;100.00;101963.16;5178422;27;20583;-81
2024/04/23 08:59:33;;;;;;;2.45;1.70;;;;;;;6.53;100.00;101958.31;5180699;27;20011;-81
2024/04/23 09:02:07;;;;;;;2.47;1.55;;;;;;;6.57;100.00;101946.22;5194563;27;20059;-81
2024/04/23 09:04:56;;;;;;;2.47;1.40;;;;;;;6.70;100.00;101948.78;5195877;27;20011;-81
2024/04/23 09:07:28;;;;;;;5.47;1.77;;;;;;;6.74;100.00;101944.69;5187150;27;20094;-81
2024/04/23 09:10:09;;;;;;;2.58;1.88;;;;;;;6.74;100.00;101950.00;5164473;27;20477;-81
2024/04/23 09:12:46;;;;;;;2.63;1.80;;;;;;;6.75;100.00;101948.16;5203928;27;20036;-81
2024/04/23 09:15:15;;;;;;;4.63;2.08;;;;;;;6.79;100.00;101934.22;5215960;27;20019;-81
2024/04/23 09:17:54;;;;;;;4.25;1.92;;;;;;;6.86;100.00;101934.16;5154318;27;20015;-81
2024/04/23 09:20:24;;;;;;;3.60;1.65;;;;;;;7.05;100.00;101932.41;5213178;27;20051;-81
2024/04/23 09:22:59;;;;;;;3.35;1.85;;;;;;;7.07;100.00;101938.31;5218139;27;20015;-81
2024/04/23 09:25:33;;;;;;;2.83;1.88;;;;;;;7.02;100.00;101940.78;5193760;27;20015;-81
2024/04/23 09:28:07;;;;;;;3.38;2.20;;;;;;;7.17;100.00;101940.47;5210688;27;20059;-81
2024/04/23 09:30:37;;;;;;;2.70;2.05;;;;;;;7.24;100.00;101918.06;5202404;27;20016;-81
2024/04/23 09:33:03;;;;;;;2.63;2.00;;;;;;;7.30;100.00;101919.03;5212592;27;20010;-81
2024/04/23 09:35:31;;;;;;;3.20;2.00;;;;;;;7.33;100.00;101916.78;5210789;27;20031;-81
2024/04/23 09:37:57;;;;;;;3.97;2.00;;;;;;;7.56;100.00;101917.97;5179097;27;20799;-81
2024/04/23 09:40:23;;;;;;;3.83;2.15;;;;;;;7.72;100.00;101912.06;5181560;27;20025;-81
2024/04/23 09:42:53;;;;;;;3.38;1.90;;;;;;;7.80;100.00;101909.13;5183589;27;20594;-81
2024/04/23 09:45:24;;;;;;;4.25;2.03;;;;;;;7.91;91.13;101904.88;5217426;27;20070;-81
2024/04/23 09:47:54;;;;;;;3.40;1.88;;;;;;;8.15;87.47;101913.84;5178770;27;20011;-81
2024/04/23 09:50:25;;;;;;;3.63;1.88;;;;;;;8.17;82.80;101909.06;5206037;27;20010;-81
2024/04/23 09:52:51;;;;;;;3.65;1.77;;;;;;;8.24;76.71;101899.13;5177858;27;20022;-81
2024/04/23 09:55:17;;;;;;;2.65;1.65;;;;;;;8.43;75.73;101907.94;5220933;27;20011;-80
2024/04/23 09:57:43;;;;;;;5.78;1.70;;;;;;;8.51;76.80;101888.94;5196902;27;20030;-81
2024/04/23 10:00:10;;;;;;;3.60;1.40;;;;;;;8.72;74.18;101885.72;5156246;27;20014;-81
2024/04/23 10:02:40;;;;;;;2.60;1.40;;;;;;;8.86;76.03;101870.31;5186989;27;20425;-80
2024/04/23 10:05:13;;;;;;;4.35;1.73;;;;;;;9.07;75.17;101876.13;5169083;27;20086;-80
2024/04/23 10:07:47;;;;;;;2.22;1.40;;;;;;;9.21;72.31;101866.84;5244891;27;20765;-80
2024/04/23 10:10:14;;;;;;;5.18;1.52;;;;;;;9.25;73.53;101857.31;5187434;27;21929;-80
2024/04/23 10:12:42;;;;;;;2.47;1.30;;;;;;;9.06;66.66;101858.47;5189288;27;20007;-80
2024/04/23 10:15:18;;;;;;;4.85;1.40;;;;;;;9.08;66.82;101851.88;5162175;27;20015;-80
2024/04/23 10:17:57;;;;;;;2.15;1.02;;;;;;;9.10;64.06;101854.31;5195345;27;20022;-80
2024/04/23 10:20:35;;;;;;;3.00;1.20;;;;;;;9.17;66.71;101838.97;5178809;27;20017;-80
2024/04/23 10:23:02;;;;;;;2.17;1.27;;;;;;;9.21;65.61;101853.47;5207582;27;20021;-80
2024/04/23 10:25:32;;;;;;;4.50;1.25;;;;;;;9.28;64.84;101835.50;5180046;27;20011;-79
2024/04/23 10:27:57;;;;;;;2.70;1.48;;;;;;;9.30;63.62;101838.72;5209274;27;20007;-81
2024/04/23 10:30:25;;;;;;;2.25;1.50;;;;;;;9.35;61.70;101841.53;5188274;27;20015;-81
2024/04/23 10:32:52;;;;;;;3.63;1.50;;;;;;;9.38;64.03;101837.56;5189070;27;20531;-80
2024/04/23 10:35:20;;;;;;;2.67;1.23;;;;;;;9.51;61.55;101835.44;5181285;27;20007;-81
2024/04/23 10:37:48;;;;;;;8.63;1.30;;;;;;;9.61;61.23;101828.66;5188790;27;20014;-81
2024/04/23 10:40:23;;;;;;;2.33;1.33;;;;;;;9.65;60.32;101821.81;5186424;27;20029;-81
2024/04/23 10:42:52;;;;;;;3.03;1.40;;;;;;;9.73;60.17;101814.22;5177970;27;20011;-80
2024/04/23 10:45:23;;;;;;;5.50;2.08;;;;;;;9.80;62.11;101806.84;5201200;27;20020;-80
2024/04/23 10:47:50;;;;;;;4.15;1.65;;;;;;;9.93;61.20;101805.78;5204818;27;20358;-79
2024/04/23 10:50:32;;;;;;;2.95;1.67;;;;;;;10.04;61.55;101802.25;5154279;27;20023;-80
2024/04/23 10:53:01;;;;;;;3.05;1.70;;;;;;;10.05;60.57;101803.06;5206899;27;20030;-79
2024/04/23 10:55:27;;;;;;;4.05;2.20;;;;;;;10.03;59.30;101805.16;5176263;27;20015;-81
2024/04/23 10:57:54;;;;;;;4.03;2.22;;;;;;;9.96;57.70;101794.59;5211940;27;20022;-80
2024/04/23 11:00:26;;;;;;;4.75;2.10;;;;;;;10.11;60.89;101789.53;5206330;27;20030;-81
2024/04/23 11:02:52;;;;;;;3.67;2.20;;;;;;;10.34;60.74;101785.09;5165974;27;20045;-80
2024/04/23 11:05:18;;;;;;;;;;;;;;;10.64;57.81;101784.81;5185871;27;20023;-80
2024/04/23 11:07:51;;;;;;;3.30;1.92;;;;;;;10.44;57.81;101768.41;5177505;27;20684;-80
2024/04/23 11:10:19;;;;;;;3.88;1.73;;;;;;;10.43;59.86;101772.13;5238187;27;20015;-81
2024/04/23 11:12:45;;;;;;;3.13;2.08;;;;;;;10.23;57.54;101777.94;5194012;27;20024;-81
2024/04/23 11:15:18;;;;;;;3.22;2.28;;;;;;;10.24;61.51;101774.25;5236242;27;20481;-81
2024/04/23 11:17:44;;;;;;;3.25;2.08;;;;;;;10.15;59.26;101771.09;5159525;27;20018;-81
2024/04/23 11:20:10;;;;;;;2.83;2.03;;;;;;;10.32;60.05;101768.47;5154024;27;20004;-81
2024/04/23 11:22:50;;;;;;;;;;;;;;;10.40;56.69;101768.06;5159567;27;20085;-81
2024/04/23 11:25:36;;;;;;;4.53;2.70;;;;;;;10.53;56.32;101750.88;5182797;27;19998;-81
2024/04/23 11:28:04;;;;;;;2.88;2.17;;;;;;;10.67;55.18;101757.50;5180114;27;20015;-81
2024/04/23 11:30:30;;;;;;;3.92;2.20;;;;;;;10.44;54.27;101745.13;5172581;27;20679;-81
2024/04/23 11:32:59;;;;;;;2.72;1.98;;;;;;;10.33;56.52;101740.66;5243264;27;19999;-81
2024/04/23 11:35:25;;;;;;;3.70;1.90;;;;;;;10.34;58.22;101739.59;5227528;27;20471;-81
2024/04/23 11:37:57;;;;;;;4.22;2.60;;;;;;;10.47;59.71;101731.22;5191365;27;20011;-80
2024/04/23 11:40:25;;;;;;;4.88;2.70;;;;;;;10.48;60.71;101730.16;5214666;27;20590;-81
2024/04/23 11:42:51;;;;;;;4.15;2.63;;;;;;;10.45;59.77;101717.28;5179819;27;20012;-81
2024/04/23 11:45:17;;;;;;;3.72;2.70;;;;;;;10.57;60.06;101717.19;5185412;27;20007;-81